Time;durP1;ratioP1;P1;durP2;ratioP2;P2;SDS_P1;SDS_P2;PMS_P1;PMS_P2;Temp;Humidity;BMP_temperature;BMP_pressure;BME280_temperature;BME280_humidity;BME280_pressure;Samples;Min_cycle;Max_cycle;Signal;HPM_P1;HPM_P2
2023/01/12 00:01:41;;;;;;;4.43;4.20;;;9.90;99.90;;;;;;5033141;28;20286;-62
2023/01/12 00:04:07;;;;;;;7.37;7.03;;;9.90;99.90;;;;;;5030743;28;20191;-62
2023/01/12 00:06:33;;;;;;;5.50;4.70;;;9.90;99.90;;;;;;5046542;28;20544;-61
2023/01/12 00:09:01;;;;;;;32.53;30.60;;;9.90;99.90;;;;;;5050909;28;20175;-63
2023/01/12 00:11:27;;;;;;;5.73;5.23;;;9.90;99.90;;;;;;5039637;28;20565;-62
2023/01/12 00:13:53;;;;;;;4.33;4.13;;;10.00;99.90;;;;;;5033326;28;20642;-63
2023/01/12 00:16:33;;;;;;;8.13;4.67;;;10.00;99.90;;;;;;5046752;28;20179;-63
2023/01/12 00:19:20;;;;;;;7.40;6.87;;;10.00;99.90;;;;;;5054515;28;20182;-63
2023/01/12 00:21:50;;;;;;;5.10;4.70;;;10.00;99.90;;;;;;5038563;28;20195;-63
2023/01/12 00:24:17;;;;;;;24.13;22.83;;;9.90;99.90;;;;;;5034290;28;20203;-63
2023/01/12 00:26:43;;;;;;;9.23;8.30;;;9.90;99.90;;;;;;5048672;28;20309;-63
2023/01/12 00:29:08;;;;;;;5.43;4.93;;;9.90;99.90;;;;;;5053748;28;20669;-63
2023/01/12 00:31:34;;;;;;;7.23;4.63;;;9.90;99.90;;;;;;5052461;28;20256;-62
2023/01/12 00:33:59;;;;;;;4.20;3.90;;;9.90;99.90;;;;;;5054146;28;20632;-63
2023/01/12 00:36:25;;;;;;;8.50;5.13;;;9.90;99.90;;;;;;5043202;28;20214;-64
2023/01/12 00:38:50;;;;;;;4.93;4.63;;;9.80;99.90;;;;;;5033321;28;20611;-63
2023/01/12 00:46:44;;;;;;;4.83;4.50;;;9.80;99.90;;;;;;5041955;28;20603;-62
2023/01/12 00:49:10;;;;;;;6.37;5.20;;;9.80;99.90;;;;;;5033466;28;20183;-63
2023/01/12 00:51:35;;;;;;;7.03;5.00;;;9.70;99.90;;;;;;5043691;28;20221;-63
2023/01/12 00:54:03;;;;;;;8.77;5.23;;;9.70;99.90;;;;;;5053712;28;20483;-63
2023/01/12 00:56:30;;;;;;;6.90;4.63;;;9.70;99.90;;;;;;5045156;28;20336;-63
2023/01/12 00:58:56;;;;;;;8.93;8.30;;;9.70;99.90;;;;;;5037972;28;20526;-63
2023/01/12 01:01:21;;;;;;;5.77;5.47;;;9.70;99.90;;;;;;5053070;28;20199;-63
2023/01/12 01:03:47;;;;;;;6.07;5.57;;;9.70;99.90;;;;;;5051901;28;20245;-63
2023/01/12 01:06:13;;;;;;;6.37;5.80;;;9.70;99.90;;;;;;5053517;28;20170;-63
2023/01/12 01:08:38;;;;;;;5.67;4.83;;;9.70;99.90;;;;;;5052693;28;20221;-62
2023/01/12 01:11:07;;;;;;;7.40;6.57;;;9.70;99.90;;;;;;5033114;28;20195;-63
2023/01/12 01:13:35;;;;;;;8.00;7.60;;;9.70;99.90;;;;;;5033430;28;20183;-62
2023/01/12 01:16:02;;;;;;;5.80;5.50;;;9.70;99.90;;;;;;5052470;28;20191;-64
2023/01/12 01:18:28;;;;;;;5.00;4.70;;;9.70;99.90;;;;;;5013660;28;20207;-62
2023/01/12 01:20:54;;;;;;;5.03;4.63;;;9.70;99.90;;;;;;5048815;28;20182;-63
2023/01/12 01:23:21;;;;;;;10.20;9.50;;;9.70;99.90;;;;;;5052953;28;20268;-63
2023/01/12 01:25:46;;;;;;;7.93;5.57;;;9.70;99.90;;;;;;5051595;28;20205;-63
2023/01/12 01:28:13;;;;;;;5.30;4.90;;;9.70;99.90;;;;;;5053119;28;20692;-62
2023/01/12 01:30:38;;;;;;;8.37;6.40;;;9.60;99.90;;;;;;5037987;28;20221;-63
2023/01/12 01:33:04;;;;;;;8.33;6.03;;;9.70;99.90;;;;;;5032993;28;20634;-63
2023/01/12 01:35:29;;;;;;;15.43;14.63;;;9.70;99.90;;;;;;5045461;28;20186;-62
2023/01/12 01:37:55;;;;;;;10.43;5.20;;;9.70;99.90;;;;;;5052994;28;20205;-63
2023/01/12 01:40:20;;;;;;;5.83;5.43;;;9.60;99.90;;;;;;5041621;28;20181;-63
2023/01/12 01:42:46;;;;;;;8.47;6.87;;;9.70;99.90;;;;;;5033427;28;20207;-63
2023/01/12 01:45:13;;;;;;;5.67;5.30;;;9.60;99.90;;;;;;5041199;28;20679;-63
2023/01/12 01:47:43;;;;;;;7.20;6.03;;;9.60;99.90;;;;;;5052779;28;20207;-63
2023/01/12 01:50:27;;;;;;;5.63;5.23;;;9.70;99.90;;;;;;5044392;28;20191;-63
2023/01/12 01:53:03;;;;;;;5.73;5.17;;;9.60;99.90;;;;;;5039555;28;20781;-63
2023/01/12 01:55:36;;;;;;;8.53;5.83;;;9.60;99.90;;;;;;5052576;28;20186;-63
2023/01/12 01:58:15;;;;;;;4.50;4.30;;;9.60;99.90;;;;;;5044931;28;20176;-63
2023/01/12 02:00:42;;;;;;;7.73;7.17;;;9.70;99.90;;;;;;5032502;28;20175;-62
2023/01/12 02:03:10;;;;;;;9.07;8.10;;;9.70;99.90;;;;;;5039758;28;20206;-63
2023/01/12 02:05:38;;;;;;;7.87;5.70;;;9.80;99.90;;;;;;5052560;28;20262;-63
2023/01/12 02:08:11;;;;;;;6.03;5.53;;;9.80;99.90;;;;;;5045838;28;20579;-63
2023/01/12 02:10:38;;;;;;;5.23;4.90;;;9.80;99.90;;;;;;5032185;28;20583;-63
2023/01/12 02:19:00;;;;;;;10.30;5.13;;;9.90;99.90;;;;;;5050630;28;20182;-63
2023/01/12 02:21:50;;;;;;;4.63;4.43;;;9.90;99.90;;;;;;5051580;28;20205;-62
2023/01/12 02:24:39;;;;;;;8.03;7.40;;;9.90;99.90;;;;;;5037656;28;20203;-62
2023/01/12 02:27:31;;;;;;;7.30;6.50;;;9.90;99.90;;;;;;5032093;28;20175;-63
2023/01/12 02:30:38;;;;;;;9.53;5.40;;;10.00;99.90;;;;;;5043109;28;20180;-63
2023/01/12 02:33:24;;;;;;;6.60;6.00;;;10.00;99.90;;;;;;5020301;28;20381;-63
2023/01/12 02:35:54;;;;;;;15.33;6.77;;;10.00;99.90;;;;;;5037880;28;20233;-63
2023/01/12 02:38:32;;;;;;;9.37;5.33;;;10.00;99.90;;;;;;5047391;28;20176;-63
2023/01/12 02:41:16;;;;;;;16.07;6.20;;;10.10;99.90;;;;;;5031435;28;20599;-63
2023/01/12 02:43:42;;;;;;;6.07;5.10;;;10.10;99.90;;;;;;5037959;28;20203;-63
2023/01/12 02:46:26;;;;;;;6.93;6.53;;;10.10;99.90;;;;;;5042648;28;20180;-62
2023/01/12 02:49:11;;;;;;;7.33;4.87;;;10.10;99.90;;;;;;5012122;28;20377;-63
2023/01/12 02:51:45;;;;;;;4.70;4.40;;;10.10;99.90;;;;;;5026918;28;20297;-63
2023/01/12 02:54:13;;;;;;;4.80;4.50;;;10.10;99.90;;;;;;5049762;28;20269;-63
2023/01/12 02:56:48;;;;;;;5.00;4.70;;;10.10;99.90;;;;;;5044403;28;20188;-63
2023/01/12 02:59:30;;;;;;;5.77;4.30;;;10.10;99.90;;;;;;5031226;28;20171;-62
2023/01/12 03:02:01;;;;;;;4.93;4.63;;;10.00;99.90;;;;;;5040161;28;20206;-63
2023/01/12 03:04:30;;;;;;;6.37;5.83;;;9.90;99.90;;;;;;5051481;28;20206;-63
2023/01/12 03:06:55;;;;;;;6.13;5.27;;;9.80;99.90;;;;;;5043020;28;20183;-63
2023/01/12 03:09:32;;;;;;;7.07;5.57;;;9.60;99.90;;;;;;5031149;28;20179;-63
2023/01/12 03:12:03;;;;;;;6.77;5.50;;;9.50;99.90;;;;;;5039229;28;20198;-63
2023/01/12 03:14:32;;;;;;;6.47;6.07;;;9.40;99.90;;;;;;5044739;28;20325;-63
2023/01/12 03:17:01;;;;;;;6.10;5.70;;;9.30;99.90;;;;;;5031481;28;20180;-66
2023/01/12 03:19:31;;;;;;;9.43;5.10;;;9.30;99.90;;;;;;5032628;28;20682;-63
2023/01/12 03:22:01;;;;;;;5.17;4.70;;;9.20;99.90;;;;;;5031347;28;20234;-63
2023/01/12 03:24:33;;;;;;;7.30;4.97;;;9.10;99.90;;;;;;5036396;28;20210;-63
2023/01/12 03:27:03;;;;;;;6.03;5.67;;;9.10;99.90;;;;;;5051269;28;20170;-63
2023/01/12 03:29:40;;;;;;;8.10;6.07;;;9.10;99.90;;;;;;5045458;28;20183;-63
2023/01/12 03:32:06;;;;;;;5.97;5.40;;;9.10;99.90;;;;;;5031211;28;20270;-63
2023/01/12 03:34:33;;;;;;;5.43;5.23;;;9.10;99.90;;;;;;5035866;28;20178;-63
2023/01/12 03:37:11;;;;;;;5.50;5.20;;;9.10;99.90;;;;;;5051135;28;20214;-63
2023/01/12 03:39:49;;;;;;;9.63;6.13;;;9.10;99.90;;;;;;5045631;28;20206;-63
2023/01/12 03:42:22;;;;;;;6.80;5.63;;;9.10;99.90;;;;;;5035186;28;20224;-63
2023/01/12 03:45:02;;;;;;;6.43;6.13;;;9.10;99.90;;;;;;5052546;28;20205;-63
2023/01/12 03:47:31;;;;;;;5.73;5.43;;;9.10;99.90;;;;;;5049051;28;20179;-63
2023/01/12 03:50:21;;;;;;;5.73;5.43;;;9.10;99.90;;;;;;5034828;28;20179;-63
2023/01/12 03:52:47;;;;;;;7.20;5.93;;;9.10;99.90;;;;;;5050461;28;20336;-63
2023/01/12 03:55:16;;;;;;;6.63;6.30;;;9.10;99.90;;;;;;5054714;28;20174;-63
2023/01/12 03:57:43;;;;;;;6.60;6.10;;;9.10;99.90;;;;;;5040128;28;20262;-63
2023/01/12 04:00:11;;;;;;;7.67;5.60;;;9.20;99.90;;;;;;5034493;28;20180;-63
2023/01/12 04:02:37;;;;;;;10.73;5.93;;;9.20;99.90;;;;;;5048026;28;20209;-63
2023/01/12 04:05:05;;;;;;;5.23;5.03;;;9.20;99.90;;;;;;5054704;28;20633;-64
2023/01/12 04:07:31;;;;;;;7.83;6.57;;;9.20;99.90;;;;;;5042517;28;20190;-63
2023/01/12 04:09:56;;;;;;;5.63;5.23;;;9.20;99.90;;;;;;5036048;28;20585;-63
2023/01/12 04:12:22;;;;;;;6.47;6.10;;;9.20;99.90;;;;;;5054508;28;20194;-63
2023/01/12 04:14:48;;;;;;;6.03;5.63;;;9.30;99.90;;;;;;5054328;28;20175;-63
2023/01/12 04:17:15;;;;;;;12.37;11.57;;;9.30;99.90;;;;;;5034597;28;20541;-63
2023/01/12 04:19:41;;;;;;;5.47;5.27;;;9.30;99.90;;;;;;5034206;28;20184;-63
2023/01/12 04:24:51;;;;;;;11.07;9.33;;;9.30;99.90;;;;;;5054353;28;20645;-63
2023/01/12 04:27:17;;;;;;;7.30;6.87;;;9.40;99.90;;;;;;5034853;28;20215;-64
2023/01/12 04:29:43;;;;;;;9.27;8.53;;;9.40;99.90;;;;;;5034038;28;20641;-63
2023/01/12 04:32:09;;;;;;;4.93;4.70;;;9.40;99.90;;;;;;5051397;28;20694;-63
2023/01/12 04:34:35;;;;;;;7.20;6.53;;;9.40;99.90;;;;;;5054219;28;20206;-63
2023/01/12 04:37:02;;;;;;;10.00;4.77;;;9.40;99.90;;;;;;5039012;28;20218;-62
2023/01/12 04:39:28;;;;;;;5.13;4.73;;;9.40;99.90;;;;;;5032542;28;20171;-63
2023/01/12 04:41:53;;;;;;;6.90;6.50;;;9.40;99.90;;;;;;5048047;28;20268;-63
2023/01/12 04:44:19;;;;;;;9.00;8.50;;;9.40;99.90;;;;;;5053774;28;20210;-63
2023/01/12 04:46:47;;;;;;;6.30;5.77;;;9.30;99.90;;;;;;5041612;28;20175;-63
2023/01/12 04:49:12;;;;;;;5.63;5.07;;;9.30;99.90;;;;;;5033630;28;20178;-63
2023/01/12 04:51:38;;;;;;;5.40;5.10;;;9.20;99.90;;;;;;5044588;28;20207;-63
2023/01/12 04:54:03;;;;;;;5.50;5.10;;;9.20;99.90;;;;;;5053787;28;20683;-63
2023/01/12 04:56:30;;;;;;;5.57;5.27;;;9.10;99.90;;;;;;5043127;28;20191;-63
2023/01/12 04:59:00;;;;;;;5.77;5.47;;;9.10;99.90;;;;;;5033792;28;20172;-63
2023/01/12 05:01:27;;;;;;;6.40;6.00;;;9.10;99.90;;;;;;5041166;28;20222;-63
2023/01/12 05:03:56;;;;;;;6.27;5.97;;;9.00;99.90;;;;;;5053660;28;20682;-63
2023/01/12 05:06:23;;;;;;;5.83;5.43;;;9.00;99.90;;;;;;5043535;28;20172;-63
2023/01/12 05:11:33;;;;;;;5.30;5.10;;;9.00;99.90;;;;;;5044805;28;20340;-63
2023/01/12 05:13:59;;;;;;;5.30;5.10;;;9.00;99.90;;;;;;5053386;28;20708;-65
2023/01/12 05:16:25;;;;;;;5.77;5.40;;;9.00;99.90;;;;;;5043191;28;20175;-64
2023/01/12 05:18:52;;;;;;;6.93;6.50;;;8.90;99.90;;;;;;5033801;28;20617;-63
2023/01/12 05:21:20;;;;;;;6.00;5.70;;;8.90;99.90;;;;;;5041298;28;20216;-63
2023/01/12 05:23:47;;;;;;;6.13;5.83;;;8.90;99.90;;;;;;5053461;28;20214;-63
2023/01/12 05:26:13;;;;;;;5.60;5.30;;;8.90;99.90;;;;;;5045693;28;20208;-66
2023/01/12 05:28:39;;;;;;;9.30;8.70;;;8.80;99.90;;;;;;5033291;28;20199;-63
2023/01/12 05:31:09;;;;;;;6.67;6.00;;;8.80;99.90;;;;;;5038192;28;20285;-64
2023/01/12 05:33:36;;;;;;;6.60;5.77;;;8.80;99.90;;;;;;5048720;28;20587;-65
2023/01/12 05:36:06;;;;;;;5.87;5.37;;;8.80;99.90;;;;;;5031777;28;20602;-65
2023/01/12 05:38:33;;;;;;;8.13;7.47;;;8.70;99.90;;;;;;5035997;28;20185;-64
2023/01/12 05:41:03;;;;;;;6.33;5.73;;;8.70;99.90;;;;;;5050372;28;20289;-64
2023/01/12 05:46:14;;;;;;;8.73;8.33;;;8.60;99.90;;;;;;5052056;28;20229;-64
2023/01/12 05:48:40;;;;;;;6.73;6.43;;;8.60;99.90;;;;;;5049505;28;20718;-64
2023/01/12 05:51:07;;;;;;;6.23;5.93;;;8.60;99.90;;;;;;5032413;28;20199;-64
2023/01/12 05:53:33;;;;;;;5.83;5.57;;;8.60;99.90;;;;;;5052602;28;20189;-64
2023/01/12 05:56:06;;;;;;;6.67;6.40;;;8.50;99.90;;;;;;5052585;28;20644;-64
2023/01/12 05:58:31;;;;;;;5.87;5.67;;;8.50;99.90;;;;;;5032633;28;20691;-64
2023/01/12 06:00:57;;;;;;;5.97;5.77;;;8.50;99.90;;;;;;5032334;28;20211;-63
2023/01/12 06:03:22;;;;;;;5.73;5.53;;;8.50;99.90;;;;;;5050603;28;20234;-64
2023/01/12 06:05:57;;;;;;;6.77;6.47;;;8.50;99.90;;;;;;5052523;28;20179;-64
2023/01/12 06:08:24;;;;;;;5.13;4.93;;;8.50;99.90;;;;;;5034005;28;20205;-64
2023/01/12 06:10:50;;;;;;;6.30;5.90;;;8.50;99.90;;;;;;5032316;28;20275;-65
2023/01/12 06:16:04;;;;;;;6.33;6.03;;;8.40;99.90;;;;;;5052274;28;20702;-64
2023/01/12 06:18:34;;;;;;;5.50;5.30;;;8.40;99.90;;;;;;5034232;28;20175;-64
2023/01/12 06:21:00;;;;;;;6.23;5.97;;;8.40;99.90;;;;;;5031854;28;20195;-64
2023/01/12 06:23:26;;;;;;;5.30;5.10;;;8.40;99.90;;;;;;5048542;28;20259;-64
2023/01/12 06:25:51;;;;;;;5.43;5.23;;;8.40;99.90;;;;;;5052086;28;20170;-64
2023/01/12 06:28:17;;;;;;;8.50;8.10;;;8.40;99.90;;;;;;5036833;28;20183;-64
2023/01/12 06:30:42;;;;;;;5.80;5.60;;;8.40;99.90;;;;;;5031858;28;20183;-64
2023/01/12 06:33:08;;;;;;;12.03;11.23;;;8.40;99.90;;;;;;5041069;28;20181;-64
2023/01/12 06:35:33;;;;;;;6.17;5.90;;;8.40;99.90;;;;;;5034750;28;20634;-64
2023/01/12 06:37:59;;;;;;;7.07;6.57;;;8.50;99.90;;;;;;5031974;28;20179;-64
2023/01/12 06:40:25;;;;;;;17.63;16.53;;;8.50;99.90;;;;;;5031534;28;20764;-63
2023/01/12 06:42:51;;;;;;;6.30;6.00;;;8.50;99.90;;;;;;5046089;28;20297;-64
2023/01/12 06:45:17;;;;;;;6.50;6.10;;;8.50;99.90;;;;;;5050293;28;20222;-64
2023/01/12 06:47:44;;;;;;;6.10;5.90;;;8.60;99.90;;;;;;5038109;28;20195;-64
2023/01/12 06:50:10;;;;;;;9.50;9.10;;;8.60;99.90;;;;;;5031680;28;20221;-63
2023/01/12 06:52:36;;;;;;;8.97;8.47;;;8.60;99.90;;;;;;5043697;28;20285;-64
2023/01/12 06:55:02;;;;;;;8.37;6.17;;;8.70;99.90;;;;;;5051590;28;20207;-64
2023/01/12 06:57:27;;;;;;;8.47;8.03;;;8.70;99.90;;;;;;5048876;28;20183;-64
2023/01/12 06:59:53;;;;;;;11.73;11.03;;;8.80;99.90;;;;;;5051362;28;20687;-64
2023/01/12 07:02:18;;;;;;;6.33;5.73;;;8.80;99.90;;;;;;5031768;28;20698;-64
2023/01/12 07:04:44;;;;;;;5.50;5.30;;;8.90;99.90;;;;;;5031960;28;20211;-64
2023/01/12 07:07:10;;;;;;;5.10;4.90;;;8.90;99.90;;;;;;5031222;28;20577;-64
2023/01/12 07:09:35;;;;;;;6.17;5.77;;;8.90;99.90;;;;;;5031598;28;20179;-64
2023/01/12 07:12:02;;;;;;;6.83;6.23;;;8.90;99.90;;;;;;5031295;28;20195;-64
2023/01/12 07:14:28;;;;;;;6.03;5.73;;;8.90;99.90;;;;;;5043437;28;20189;-64
2023/01/12 07:16:54;;;;;;;7.20;5.90;;;9.00;99.90;;;;;;5051331;28;20179;-64
2023/01/12 07:19:19;;;;;;;44.20;42.07;;;9.00;99.90;;;;;;5039268;28;20194;-64
2023/01/12 07:21:46;;;;;;;4.70;4.50;;;9.00;99.90;;;;;;5031106;28;20257;-64
2023/01/12 07:24:12;;;;;;;5.97;5.50;;;9.00;99.90;;;;;;5032108;28;20211;-64
2023/01/12 07:26:37;;;;;;;6.50;5.70;;;9.00;99.90;;;;;;5031349;28;20584;-64
2023/01/12 07:29:03;;;;;;;6.93;6.63;;;9.10;99.90;;;;;;5032416;28;20191;-64
2023/01/12 07:31:29;;;;;;;5.13;4.83;;;9.00;99.90;;;;;;5030808;28;20253;-65
2023/01/12 07:33:55;;;;;;;7.10;6.80;;;9.10;99.90;;;;;;5037963;28;20270;-64
2023/01/12 07:36:22;;;;;;;5.77;5.47;;;9.10;99.90;;;;;;5050966;28;20183;-65
2023/01/12 07:38:47;;;;;;;9.50;5.10;;;9.10;99.90;;;;;;5049402;28;20886;-64
2023/01/12 07:43:58;;;;;;;5.53;5.23;;;9.10;99.90;;;;;;5050647;28;20206;-65
2023/01/12 07:46:24;;;;;;;16.53;5.40;;;9.10;99.90;;;;;;5051059;28;20179;-64
2023/01/12 07:48:50;;;;;;;5.33;5.10;;;9.10;99.90;;;;;;5050587;28;20620;-65
2023/01/12 07:51:15;;;;;;;5.70;5.40;;;9.10;99.90;;;;;;5048919;28;20210;-64
2023/01/12 07:53:41;;;;;;;6.30;4.67;;;9.20;99.90;;;;;;5031056;28;20604;-65
2023/01/12 07:56:08;;;;;;;5.47;5.17;;;9.20;99.90;;;;;;5045207;28;20193;-65
2023/01/12 07:58:34;;;;;;;5.97;4.83;;;9.20;99.90;;;;;;5050189;28;20202;-65
2023/01/12 08:01:00;;;;;;;5.97;5.37;;;9.20;99.90;;;;;;5030668;28;20613;-65
2023/01/12 08:03:26;;;;;;;6.77;6.30;;;9.20;99.90;;;;;;5030819;28;20578;-64
2023/01/12 08:05:54;;;;;;;5.30;4.80;;;9.20;99.90;;;;;;5049673;28;20558;-64
2023/01/12 08:08:20;;;;;;;5.33;5.03;;;9.20;99.90;;;;;;5050775;28;20175;-65
2023/01/12 08:10:48;;;;;;;5.90;5.43;;;9.30;99.90;;;;;;5041125;28;20186;-65
2023/01/12 08:13:15;;;;;;;5.90;5.57;;;9.30;99.90;;;;;;5038475;28;20210;-65
2023/01/12 08:15:45;;;;;;;5.97;5.67;;;9.30;99.90;;;;;;5040209;28;20535;-65
2023/01/12 08:18:26;;;;;;;5.70;5.30;;;9.30;99.90;;;;;;5030710;28;20176;-65
2023/01/12 08:20:53;;;;;;;5.10;4.90;;;9.30;99.90;;;;;;5030857;28;20210;-65
2023/01/12 08:23:24;;;;;;;6.07;5.67;;;9.30;99.90;;;;;;5037146;28;20207;-65
2023/01/12 08:25:58;;;;;;;7.63;5.03;;;9.30;99.90;;;;;;5010971;28;20177;-64
2023/01/12 08:28:30;;;;;;;5.20;4.90;;;9.30;99.90;;;;;;5019417;28;20236;-65
2023/01/12 08:30:56;;;;;;;6.90;6.30;;;9.30;99.90;;;;;;5030770;28;20172;-65
2023/01/12 08:33:22;;;;;;;5.80;5.13;;;9.30;99.90;;;;;;5051246;28;20281;-64
2023/01/12 08:35:48;;;;;;;5.00;4.80;;;9.40;99.90;;;;;;5053976;28;20191;-64
2023/01/12 08:38:14;;;;;;;7.13;6.83;;;9.40;99.90;;;;;;5052793;28;20659;-65
2023/01/12 08:46:08;;;;;;;4.90;4.70;;;9.40;99.90;;;;;;5055249;28;20659;-64
2023/01/12 08:48:35;;;;;;;7.10;6.80;;;9.40;99.90;;;;;;5053100;28;20179;-64
2023/01/12 08:51:00;;;;;;;5.13;4.83;;;9.50;99.90;;;;;;5053399;28;20278;-64
2023/01/12 08:53:26;;;;;;;4.80;4.60;;;9.50;99.90;;;;;;5051004;28;20317;-64
2023/01/12 08:55:52;;;;;;;4.43;4.23;;;9.50;99.90;;;;;;5053704;28;20179;-64
2023/01/12 08:58:18;;;;;;;5.30;5.10;;;9.50;99.90;;;;;;5047662;28;20260;-64
2023/01/12 09:00:43;;;;;;;4.50;4.30;;;9.50;99.90;;;;;;5033492;28;20179;-64
2023/01/12 09:03:09;;;;;;;4.77;4.47;;;9.50;99.90;;;;;;5037436;28;20190;-65
2023/01/12 09:05:35;;;;;;;5.07;4.87;;;9.50;99.90;;;;;;5053580;28;20171;-64
2023/01/12 09:08:00;;;;;;;4.83;4.63;;;9.60;99.90;;;;;;5050779;28;20183;-64
2023/01/12 09:10:26;;;;;;;5.30;5.10;;;9.60;99.90;;;;;;5033235;28;20225;-65
2023/01/12 09:12:51;;;;;;;6.53;4.90;;;9.60;99.90;;;;;;5033251;28;20253;-64
2023/01/12 09:15:17;;;;;;;5.63;5.33;;;9.60;99.90;;;;;;5053494;28;20240;-64
2023/01/12 09:17:43;;;;;;;5.27;5.07;;;9.60;99.90;;;;;;5053171;28;20175;-64
2023/01/12 09:20:10;;;;;;;5.20;4.90;;;9.60;99.90;;;;;;5052936;28;20320;-65
2023/01/12 09:22:35;;;;;;;4.97;4.67;;;9.70;99.90;;;;;;5052525;28;20199;-65
2023/01/12 09:25:01;;;;;;;5.40;5.10;;;9.70;99.90;;;;;;5038287;28;20273;-64
2023/01/12 09:27:27;;;;;;;4.50;4.30;;;9.70;99.90;;;;;;5047458;28;20625;-64
2023/01/12 09:29:53;;;;;;;5.20;4.70;;;9.70;99.90;;;;;;5052824;28;20228;-64
2023/01/12 09:32:19;;;;;;;4.87;4.67;;;9.80;99.90;;;;;;5039578;28;20295;-64
2023/01/12 09:34:47;;;;;;;4.30;4.10;;;9.80;99.90;;;;;;5033119;28;20665;-64
2023/01/12 09:37:13;;;;;;;5.00;4.70;;;9.80;99.90;;;;;;5033358;28;20175;-66
2023/01/12 09:39:38;;;;;;;4.87;4.57;;;9.80;99.90;;;;;;5032754;28;20251;-64
2023/01/12 09:47:55;;;;;;;5.57;5.20;;;9.80;99.90;;;;;;5052707;28;20182;-65
2023/01/12 09:50:33;;;;;;;4.77;4.57;;;9.90;99.90;;;;;;5038339;28;20206;-64
2023/01/12 09:53:16;;;;;;;5.20;5.00;;;9.90;99.90;;;;;;5043388;28;20760;-64
2023/01/12 09:55:48;;;;;;;5.00;4.80;;;9.90;99.90;;;;;;5033046;28;20633;-64
2023/01/12 09:58:38;;;;;;;5.80;5.53;;;9.90;99.90;;;;;;5035017;28;20219;-63
2023/01/12 10:01:12;;;;;;;4.40;4.20;;;9.90;99.90;;;;;;5031569;28;20191;-64
2023/01/12 10:03:41;;;;;;;4.60;4.40;;;9.90;99.90;;;;;;5032370;28;20202;-64
2023/01/12 10:06:13;;;;;;;13.57;5.63;;;10.00;99.90;;;;;;5032420;28;20206;-64
2023/01/12 10:08:44;;;;;;;4.70;4.40;;;9.90;99.90;;;;;;5032580;28;20633;-64
2023/01/12 10:11:45;;;;;;;4.80;4.60;;;10.00;99.90;;;;;;5031855;28;20597;-64
2023/01/12 10:14:23;;;;;;;4.70;4.50;;;10.00;99.90;;;;;;5022637;28;20199;-63
2023/01/12 10:17:30;;;;;;;6.20;4.37;;;10.10;99.90;;;;;;5032082;28;20184;-65
2023/01/12 10:20:18;;;;;;;5.00;4.50;;;10.00;99.90;;;;;;5029656;28;20559;-63
2023/01/12 10:22:52;;;;;;;4.90;4.60;;;10.10;99.90;;;;;;5032356;28;20196;-64
2023/01/12 10:25:33;;;;;;;4.57;4.37;;;10.10;99.90;;;;;;5031291;28;20237;-66
2023/01/12 10:28:20;;;;;;;4.87;4.60;;;10.10;99.90;;;;;;5032033;28;20167;-63
2023/01/12 10:30:46;;;;;;;4.60;4.40;;;10.10;99.90;;;;;;5031833;28;20176;-63
2023/01/12 10:33:11;;;;;;;4.50;4.30;;;10.20;99.90;;;;;;5031847;28;20186;-64
2023/01/12 10:35:53;;;;;;;4.50;4.30;;;10.20;99.90;;;;;;5031855;28;20649;-64
2023/01/12 10:38:33;;;;;;;4.90;4.67;;;10.20;99.90;;;;;;5031781;28;20176;-62
2023/01/12 10:41:21;;;;;;;4.50;4.30;;;10.30;99.90;;;;;;5031467;28;20203;-64
2023/01/12 10:43:58;;;;;;;5.23;4.93;;;10.30;99.90;;;;;;5028403;28;20301;-64
2023/01/12 10:46:30;;;;;;;4.60;4.37;;;10.30;99.90;;;;;;5024444;28;20642;-64
2023/01/12 10:49:22;;;;;;;4.53;4.33;;;10.40;99.90;;;;;;5012057;28;20537;-64
2023/01/12 10:51:57;;;;;;;5.03;4.73;;;10.40;99.90;;;;;;5011776;28;20231;-64
2023/01/12 10:54:32;;;;;;;4.90;4.70;;;10.50;99.90;;;;;;5011133;28;20183;-64
2023/01/12 10:57:02;;;;;;;4.80;4.60;;;10.60;99.90;;;;;;5011895;28;20232;-63
2023/01/12 10:59:31;;;;;;;5.93;5.43;;;10.60;99.90;;;;;;5011651;28;20261;-64
2023/01/12 11:02:05;;;;;;;4.50;4.30;;;10.70;99.90;;;;;;5011769;28;20200;-64
2023/01/12 11:04:39;;;;;;;7.43;7.13;;;10.70;99.90;;;;;;5011776;28;20589;-63
2023/01/12 11:07:09;;;;;;;4.80;4.60;;;10.80;99.90;;;;;;5011683;28;20172;-64
2023/01/12 11:09:35;;;;;;;4.60;4.40;;;10.80;99.90;;;;;;5031097;28;20174;-64
2023/01/12 11:12:04;;;;;;;4.33;4.13;;;10.90;99.90;;;;;;5035683;28;20191;-64
2023/01/12 11:14:36;;;;;;;5.10;4.80;;;10.90;99.90;;;;;;5031240;28;20187;-63
2023/01/12 11:17:31;;;;;;;4.40;4.20;;;11.00;99.90;;;;;;5016693;28;20275;-65
2023/01/12 11:19:59;;;;;;;4.30;4.10;;;11.00;99.90;;;;;;5011266;28;20176;-64
2023/01/12 11:22:30;;;;;;;5.03;4.83;;;11.10;99.90;;;;;;5010388;28;20679;-64
2023/01/12 11:25:01;;;;;;;5.83;5.63;;;11.20;99.90;;;;;;5027937;28;20206;-65
2023/01/12 11:27:29;;;;;;;4.97;4.77;;;11.20;99.90;;;;;;5044933;28;20188;-64
2023/01/12 11:30:01;;;;;;;4.33;4.13;;;11.20;99.90;;;;;;5030781;28;20167;-64
2023/01/12 11:32:26;;;;;;;4.43;4.23;;;11.20;99.90;;;;;;5031087;28;20771;-64
2023/01/12 11:35:13;;;;;;;5.07;4.70;;;11.20;99.90;;;;;;5030086;28;20199;-63
2023/01/12 11:37:41;;;;;;;5.23;4.80;;;11.20;99.90;;;;;;5031192;28;20229;-64
2023/01/12 11:40:24;;;;;;;5.43;5.13;;;11.30;99.90;;;;;;5031123;28;20190;-64
2023/01/12 11:45:53;;;;;;;5.20;4.90;;;11.40;99.90;;;;;;5039799;28;20190;-64
2023/01/12 11:48:31;;;;;;;4.50;4.30;;;11.40;99.90;;;;;;5039765;28;20186;-64
2023/01/12 11:50:58;;;;;;;4.33;4.03;;;11.40;99.90;;;;;;5030976;28;20175;-64
2023/01/12 11:53:24;;;;;;;4.60;4.40;;;11.50;99.90;;;;;;5030962;28;20171;-65
2023/01/12 11:56:08;;;;;;;4.70;4.50;;;11.50;99.90;;;;;;5039989;28;20645;-64
2023/01/12 11:59:00;;;;;;;5.10;4.90;;;11.50;99.90;;;;;;5051309;28;20167;-65
2023/01/12 12:01:50;;;;;;;6.23;4.50;;;11.50;99.90;;;;;;5037028;28;20200;-64
2023/01/12 12:04:49;;;;;;;3.90;3.70;;;11.50;99.90;;;;;;5030678;28;20561;-64
2023/01/12 12:07:21;;;;;;;4.00;3.80;;;11.50;99.90;;;;;;5054264;28;20268;-64
2023/01/12 12:10:21;;;;;;;4.40;4.20;;;11.50;99.90;;;;;;5054137;28;20195;-63
2023/01/12 12:13:20;;;;;;;4.23;4.03;;;11.40;99.90;;;;;;5014920;28;20196;-64
2023/01/12 12:15:54;;;;;;;4.97;4.67;;;11.40;99.90;;;;;;5027540;28;20525;-64
2023/01/12 12:18:32;;;;;;;9.20;8.50;;;11.30;99.90;;;;;;5054146;28;20253;-63
2023/01/12 12:21:15;;;;;;;6.13;5.60;;;11.30;99.90;;;;;;5041489;28;20214;-64
2023/01/12 12:24:12;;;;;;;5.93;5.57;;;11.30;99.90;;;;;;5034412;28;20195;-64
2023/01/12 12:27:00;;;;;;;5.90;5.37;;;11.20;99.90;;;;;;5034434;28;20222;-64
2023/01/12 12:29:41;;;;;;;5.60;5.30;;;11.20;99.90;;;;;;5033624;28;20168;-64
2023/01/12 12:32:21;;;;;;;6.20;5.90;;;11.20;99.90;;;;;;5030230;28;20195;-64
2023/01/12 12:35:02;;;;;;;5.27;4.80;;;11.20;99.90;;;;;;5050369;28;20547;-64
2023/01/12 12:37:36;;;;;;;6.37;6.07;;;11.20;99.90;;;;;;5054199;28;20167;-63
2023/01/12 12:40:22;;;;;;;12.27;11.67;;;11.10;99.90;;;;;;5051833;28;20182;-64
2023/01/12 12:45:42;;;;;;;5.40;4.83;;;11.00;99.90;;;;;;5053970;28;20298;-63
2023/01/12 12:48:16;;;;;;;5.20;4.90;;;10.90;99.90;;;;;;5053163;28;20555;-63
2023/01/12 12:50:59;;;;;;;5.83;4.50;;;10.90;99.90;;;;;;5013773;28;20677;-64
2023/01/12 12:53:34;;;;;;;5.20;4.90;;;10.90;99.90;;;;;;5018197;28;20649;-63
2023/01/12 12:56:07;;;;;;;4.57;4.37;;;10.90;99.90;;;;;;5053674;28;20175;-63
2023/01/12 12:58:40;;;;;;;5.90;5.40;;;10.80;99.90;;;;;;5051258;28;20190;-63
2023/01/12 13:01:23;;;;;;;4.50;4.30;;;10.80;99.90;;;;;;5033267;28;20211;-64
2023/01/12 13:03:50;;;;;;;5.00;4.80;;;10.70;99.90;;;;;;5033873;28;20187;-63
2023/01/12 13:06:33;;;;;;;5.70;5.40;;;10.70;99.90;;;;;;5033609;28;20168;-64
2023/01/12 13:09:21;;;;;;;6.07;5.70;;;10.70;99.90;;;;;;5033585;28;20186;-64
2023/01/12 13:11:53;;;;;;;10.33;7.80;;;10.70;99.90;;;;;;5033333;28;20803;-64
2023/01/12 13:14:29;;;;;;;8.33;5.83;;;10.70;99.90;;;;;;5038993;28;20186;-63
2023/01/12 13:17:00;;;;;;;5.47;5.27;;;10.70;99.90;;;;;;5052706;28;20368;-64
2023/01/12 13:19:58;;;;;;;5.73;5.53;;;10.70;99.90;;;;;;5045932;28;20191;-64
2023/01/12 13:22:38;;;;;;;9.83;5.63;;;10.70;99.90;;;;;;5013788;28;20203;-65
2023/01/12 13:25:18;;;;;;;5.50;5.10;;;10.70;99.90;;;;;;5034253;28;20210;-65
2023/01/12 13:28:01;;;;;;;5.17;4.90;;;10.70;99.90;;;;;;5031935;28;20258;-63
2023/01/12 13:30:27;;;;;;;6.00;5.70;;;10.70;99.90;;;;;;5033860;28;20567;-64
2023/01/12 13:33:00;;;;;;;5.10;4.90;;;10.70;99.90;;;;;;5033185;28;20206;-64
2023/01/12 13:35:34;;;;;;;5.00;4.80;;;10.70;99.90;;;;;;5033293;28;20175;-63
2023/01/12 13:38:23;;;;;;;4.57;4.37;;;10.70;99.90;;;;;;5032995;28;20185;-64
2023/01/12 13:41:02;;;;;;;7.60;5.80;;;10.80;99.90;;;;;;5033695;28;20195;-63
2023/01/12 13:43:33;;;;;;;5.17;4.97;;;10.80;99.90;;;;;;5032819;28;20660;-64
2023/01/12 13:46:00;;;;;;;5.60;5.40;;;10.80;99.90;;;;;;5039018;28;20522;-63
2023/01/12 13:48:29;;;;;;;5.60;5.30;;;10.80;99.90;;;;;;5044890;28;20181;-63
2023/01/12 13:51:01;;;;;;;5.13;4.93;;;10.90;99.90;;;;;;5052484;28;20166;-64
2023/01/12 13:53:29;;;;;;;4.80;4.60;;;10.90;99.90;;;;;;5041203;28;20250;-64
2023/01/12 13:55:56;;;;;;;5.20;4.93;;;10.90;99.90;;;;;;5032660;28;20172;-64